Time;durP1;ratioP1;P1;durP2;ratioP2;P2;SDS_P1;SDS_P2;PMS_P1;PMS_P2;Temp;Humidity;BMP_temperature;BMP_pressure;BME280_temperature;BME280_humidity;BME280_pressure;Samples;Min_cycle;Max_cycle;Signal;HPM_P1;HPM_P2
2021/08/12 00:01:01;;;;;;;19.52;16.35;;;19.50;99.90;;;;;;5064080;28;20048;-81
2021/08/12 00:03:30;;;;;;;20.88;15.95;;;19.50;99.90;;;;;;5062007;28;20056;-81
2021/08/12 00:05:56;;;;;;;21.02;16.40;;;19.50;99.90;;;;;;5061841;28;20048;-80
2021/08/12 00:08:23;;;;;;;18.10;16.20;;;19.40;99.90;;;;;;5061392;28;20087;-80
2021/08/12 00:10:51;;;;;;;18.80;16.25;;;19.30;99.90;;;;;;5061512;28;20084;-81
2021/08/12 00:13:18;;;;;;;20.13;17.00;;;19.40;99.90;;;;;;5060473;28;20494;-80
2021/08/12 00:15:45;;;;;;;17.88;16.05;;;19.30;99.90;;;;;;5060682;28;20497;-81
2021/08/12 00:18:12;;;;;;;18.80;16.30;;;19.30;99.90;;;;;;5061905;28;20484;-80
2021/08/12 00:20:41;;;;;;;18.20;15.80;;;19.30;99.90;;;;;;5061226;28;20139;-80
2021/08/12 00:23:08;;;;;;;18.58;16.48;;;19.30;99.90;;;;;;5060278;28;20091;-80
2021/08/12 00:25:35;;;;;;;18.20;16.27;;;19.30;99.90;;;;;;5060909;28;20131;-81
2021/08/12 00:28:02;;;;;;;18.55;16.02;;;19.30;99.90;;;;;;5060940;28;20059;-81
2021/08/12 00:30:29;;;;;;;18.77;16.30;;;19.20;99.90;;;;;;5089634;22;20076;-80
2021/08/12 00:32:56;;;;;;;19.27;16.17;;;19.20;99.90;;;;;;5064662;28;20053;-76
2021/08/12 00:35:24;;;;;;;20.58;16.50;;;19.20;99.90;;;;;;5074040;28;20080;-81
2021/08/12 00:37:56;;;;;;;20.42;16.38;;;19.10;99.90;;;;;;5074064;28;20538;-78
2021/08/12 00:40:24;;;;;;;;;;;19.10;99.90;;;;;;5075348;28;20371;-77
2021/08/12 00:42:57;;;;;;;19.75;15.77;;;19.00;99.90;;;;;;5074578;28;19924;-78
2021/08/12 00:45:26;;;;;;;18.58;16.50;;;18.90;99.90;;;;;;5075304;28;20055;-78
2021/08/12 00:47:53;;;;;;;23.58;16.90;;;18.90;99.90;;;;;;5074724;28;20118;-78
2021/08/12 00:50:20;;;;;;;20.67;17.33;;;18.90;99.90;;;;;;5075385;28;20060;-78
2021/08/12 00:52:48;;;;;;;20.77;16.70;;;18.80;99.90;;;;;;5075688;28;20053;-78
2021/08/12 00:55:17;;;;;;;19.10;16.33;;;18.80;99.90;;;;;;5079578;28;20059;-79
2021/08/12 00:57:44;;;;;;;18.73;15.25;;;18.80;99.90;;;;;;5080122;28;20136;-79
2021/08/12 01:00:12;;;;;;;18.52;16.58;;;18.80;99.90;;;;;;5084644;28;20142;-80
2021/08/12 01:02:39;;;;;;;20.92;16.85;;;18.80;99.90;;;;;;5083705;28;20068;-81
2021/08/12 01:05:08;;;;;;;18.58;16.58;;;18.80;99.90;;;;;;5079882;28;20062;-78
2021/08/12 01:07:45;;;;;;;18.95;16.48;;;18.80;99.90;;;;;;5078845;28;20438;-79
2021/08/12 01:10:22;;;;;;;20.25;15.88;;;18.70;99.90;;;;;;5075586;28;20080;-78
2021/08/12 01:13:06;;;;;;;18.30;15.60;;;18.60;99.90;;;;;;5077369;28;20072;-79
2021/08/12 01:15:39;;;;;;;17.60;15.70;;;18.60;99.90;;;;;;5080467;28;20053;-79
2021/08/12 01:18:11;;;;;;;20.88;16.75;;;18.50;99.90;;;;;;5083767;28;20101;-78
2021/08/12 01:21:18;;;;;;;19.27;16.35;;;18.50;99.90;;;;;;5084507;28;20045;-79
2021/08/12 01:23:46;;;;;;;20.55;17.17;;;18.40;99.90;;;;;;5085671;28;20044;-79
2021/08/12 01:26:17;;;;;;;20.35;17.40;;;18.40;99.90;;;;;;5082951;28;20131;-78
2021/08/12 01:28:47;;;;;;;22.65;18.92;;;18.40;99.90;;;;;;5076581;28;20060;-78
2021/08/12 01:31:26;;;;;;;20.25;17.08;;;18.40;99.90;;;;;;5075877;28;20140;-78
2021/08/12 01:34:06;;;;;;;17.73;15.82;;;18.40;99.90;;;;;;5075630;28;20052;-78
2021/08/12 01:36:43;;;;;;;18.98;16.35;;;18.30;99.90;;;;;;5074925;28;20056;-78
2021/08/12 01:39:15;;;;;;;18.52;16.52;;;18.30;99.90;;;;;;5075733;28;20044;-79
2021/08/12 01:41:43;;;;;;;21.52;16.58;;;18.20;99.90;;;;;;5073940;28;20515;-78
2021/08/12 01:44:14;;;;;;;21.05;16.27;;;18.20;99.90;;;;;;5073884;28;20058;-79
2021/08/12 01:46:45;;;;;;;19.38;16.35;;;18.20;99.90;;;;;;5072951;28;20051;-81
2021/08/12 01:49:13;;;;;;;18.38;16.38;;;18.30;99.90;;;;;;5073662;28;20104;-78
2021/08/12 01:51:42;;;;;;;17.85;15.18;;;18.20;99.90;;;;;;5074276;28;20131;-79
2021/08/12 01:54:10;;;;;;;18.55;16.55;;;18.20;99.90;;;;;;5075490;28;20219;-80
2021/08/12 01:56:38;;;;;;;18.67;15.57;;;18.10;99.90;;;;;;5074320;28;20112;-80
2021/08/12 01:59:07;;;;;;;19.52;15.95;;;18.10;99.90;;;;;;5074122;28;20137;-81
2021/08/12 02:01:35;;;;;;;19.40;16.17;;;18.00;99.90;;;;;;5073863;28;20152;-79
2021/08/12 02:04:02;;;;;;;19.42;16.23;;;18.00;99.90;;;;;;5072121;28;20413;-79
2021/08/12 02:06:36;;;;;;;17.88;15.57;;;18.00;99.90;;;;;;5071847;28;20068;-78
2021/08/12 02:09:04;;;;;;;20.63;16.27;;;17.90;99.90;;;;;;5072316;28;20044;-79
2021/08/12 02:11:34;;;;;;;17.77;15.45;;;17.90;99.90;;;;;;5072308;28;20056;-78
2021/08/12 02:14:01;;;;;;;18.90;16.05;;;17.90;99.90;;;;;;5072526;28;20056;-78
2021/08/12 02:16:28;;;;;;;21.60;16.85;;;17.90;99.90;;;;;;5072398;28;20072;-78
2021/08/12 02:18:55;;;;;;;21.02;16.73;;;17.90;99.90;;;;;;5074529;28;20104;-78
2021/08/12 02:21:25;;;;;;;18.98;16.35;;;18.00;99.90;;;;;;5072988;28;20087;-78
2021/08/12 02:23:59;;;;;;;20.95;16.73;;;18.00;99.90;;;;;;5071944;28;20055;-79
2021/08/12 02:26:34;;;;;;;17.98;15.90;;;18.00;99.90;;;;;;5071734;28;20048;-78
2021/08/12 02:29:02;;;;;;;19.88;14.85;;;18.00;99.90;;;;;;5072124;28;20055;-79
2021/08/12 02:31:31;;;;;;;17.98;14.95;;;18.00;99.90;;;;;;5071457;28;20048;-81
2021/08/12 02:33:59;;;;;;;19.40;14.90;;;17.90;99.90;;;;;;5072808;28;20106;-79
2021/08/12 02:36:26;;;;;;;16.40;13.90;;;17.90;99.90;;;;;;5073494;28;20051;-78
2021/08/12 02:38:55;;;;;;;14.57;13.07;;;17.90;99.90;;;;;;5072695;28;20048;-79
2021/08/12 02:41:23;;;;;;;20.02;14.85;;;18.00;99.90;;;;;;5071552;28;20069;-78
2021/08/12 02:43:52;;;;;;;18.08;14.30;;;18.00;99.90;;;;;;5072037;28;20139;-78
2021/08/12 02:46:23;;;;;;;17.95;14.75;;;18.00;99.90;;;;;;5071895;28;20046;-80
2021/08/12 02:48:52;;;;;;;16.17;13.80;;;18.00;99.90;;;;;;5070799;28;20151;-77
2021/08/12 02:51:19;;;;;;;19.02;15.02;;;18.00;99.90;;;;;;5070610;28;20579;-77
2021/08/12 02:53:46;;;;;;;15.77;13.65;;;18.00;99.90;;;;;;5070843;28;20049;-77
2021/08/12 02:56:14;;;;;;;19.77;14.05;;;18.00;99.90;;;;;;5071092;28;20040;-77
2021/08/12 02:58:43;;;;;;;16.70;13.55;;;18.00;99.90;;;;;;5070856;28;20548;-78
2021/08/12 03:01:12;;;;;;;16.30;14.20;;;18.00;99.90;;;;;;5070796;28;20124;-78
2021/08/12 03:03:42;;;;;;;17.33;13.95;;;18.00;99.90;;;;;;5070728;28;20048;-78
2021/08/12 03:06:12;;;;;;;15.38;13.77;;;17.90;99.90;;;;;;5071221;28;20044;-79
2021/08/12 03:08:40;;;;;;;17.02;13.95;;;17.90;99.90;;;;;;5071630;28;20130;-78
2021/08/12 03:11:09;;;;;;;17.58;13.55;;;17.90;99.90;;;;;;5072861;28;20115;-78
2021/08/12 03:13:36;;;;;;;17.92;15.15;;;17.90;99.90;;;;;;5075331;28;20051;-78
2021/08/12 03:16:05;;;;;;;15.93;13.52;;;17.90;99.90;;;;;;5074636;28;20108;-77
2021/08/12 03:18:33;;;;;;;17.77;14.13;;;17.90;99.90;;;;;;5075477;28;20044;-78
2021/08/12 03:21:06;;;;;;;18.17;14.98;;;17.90;99.90;;;;;;5073372;28;20048;-77
2021/08/12 03:23:33;;;;;;;;;;;17.80;99.90;;;;;;5071387;28;20049;-77
2021/08/12 03:25:59;;;;;;;21.45;15.25;;;17.80;99.90;;;;;;5070885;28;20019;-77
2021/08/12 03:28:26;;;;;;;18.05;14.80;;;17.70;99.90;;;;;;5073333;28;20131;-77
2021/08/12 03:30:53;;;;;;;21.83;15.30;;;17.70;99.90;;;;;;5074635;28;20080;-77
2021/08/12 03:33:20;;;;;;;18.55;15.57;;;17.70;99.90;;;;;;5074929;28;20131;-78
2021/08/12 03:35:49;;;;;;;17.85;15.23;;;17.70;99.90;;;;;;5074692;28;20155;-77
2021/08/12 03:38:16;;;;;;;18.65;15.10;;;17.80;99.90;;;;;;5075056;28;20049;-77
2021/08/12 03:40:43;;;;;;;21.70;14.90;;;17.80;99.90;;;;;;5075065;28;20076;-77
2021/08/12 03:43:10;;;;;;;18.10;14.27;;;17.80;99.90;;;;;;5074404;28;20044;-77
2021/08/12 03:45:37;;;;;;;18.08;14.43;;;17.80;99.90;;;;;;5074420;28;20044;-78
2021/08/12 03:48:04;;;;;;;19.20;14.90;;;17.80;99.90;;;;;;5074588;28;20049;-78
2021/08/12 03:50:31;;;;;;;18.40;14.32;;;17.80;99.90;;;;;;5074166;28;20528;-78
2021/08/12 03:52:59;;;;;;;17.70;15.20;;;17.80;99.90;;;;;;5073879;28;20135;-78
2021/08/12 03:55:26;;;;;;;16.98;14.65;;;17.80;99.90;;;;;;5074595;28;20080;-77
2021/08/12 03:57:53;;;;;;;20.35;14.98;;;17.80;99.90;;;;;;5074358;28;20131;-78
2021/08/12 04:00:20;;;;;;;25.67;15.00;;;17.80;99.90;;;;;;5073940;28;20049;-78
2021/08/12 04:02:47;;;;;;;20.95;14.88;;;17.70;99.90;;;;;;5073905;28;20568;-77
2021/08/12 04:05:14;;;;;;;22.00;15.30;;;17.70;99.90;;;;;;5073632;28;20530;-77
2021/08/12 04:07:40;;;;;;;19.52;15.35;;;17.60;99.90;;;;;;5073726;28;20420;-78
2021/08/12 04:10:10;;;;;;;21.75;15.70;;;17.60;99.90;;;;;;5073687;28;20052;-80
2021/08/12 04:12:37;;;;;;;21.77;14.93;;;17.60;99.90;;;;;;5074230;28;20131;-78
2021/08/12 04:15:04;;;;;;;19.17;15.68;;;17.60;99.90;;;;;;5074621;28;20131;-77
2021/08/12 04:17:31;;;;;;;19.00;15.38;;;17.60;99.90;;;;;;5075147;28;20132;-77
2021/08/12 04:19:58;;;;;;;21.40;16.45;;;17.60;99.90;;;;;;5074055;28;20091;-77
2021/08/12 04:22:25;;;;;;;18.35;15.63;;;17.50;99.90;;;;;;5074318;28;20049;-78
2021/08/12 04:24:52;;;;;;;21.63;16.75;;;17.40;99.90;;;;;;5073317;28;20222;-78
2021/08/12 04:27:20;;;;;;;19.77;16.73;;;17.40;99.90;;;;;;5073768;28;20132;-78
2021/08/12 04:29:47;;;;;;;22.83;17.38;;;17.40;99.90;;;;;;5074260;28;20079;-79
2021/08/12 04:32:14;;;;;;;21.73;17.35;;;17.30;99.90;;;;;;5075646;28;20127;-78
2021/08/12 04:34:41;;;;;;;26.08;17.63;;;17.30;99.90;;;;;;5075353;28;20048;-79
2021/08/12 04:37:08;;;;;;;20.77;17.00;;;17.40;99.90;;;;;;5075776;28;20131;-78
2021/08/12 04:39:35;;;;;;;30.88;18.08;;;17.40;99.90;;;;;;5074588;28;20045;-79
2021/08/12 04:42:01;;;;;;;24.13;16.77;;;17.40;99.90;;;;;;5075821;28;20095;-77
2021/08/12 04:44:30;;;;;;;20.90;17.92;;;17.40;99.90;;;;;;5074863;28;20467;-77
2021/08/12 04:46:56;;;;;;;25.30;18.70;;;17.40;99.90;;;;;;5074945;28;20131;-77
2021/08/12 04:49:23;;;;;;;27.50;18.73;;;17.40;99.90;;;;;;5074502;28;20517;-79
2021/08/12 04:51:50;;;;;;;28.17;19.50;;;17.40;99.90;;;;;;5074924;28;20088;-78
2021/08/12 04:54:17;;;;;;;26.85;19.23;;;17.40;99.90;;;;;;5076139;28;20044;-78
2021/08/12 04:56:44;;;;;;;23.88;18.48;;;17.40;99.90;;;;;;5075960;28;20040;-78
2021/08/12 04:59:11;;;;;;;29.55;19.52;;;17.50;99.90;;;;;;5080150;28;20056;-78
2021/08/12 05:01:39;;;;;;;30.30;19.85;;;17.50;99.90;;;;;;5076851;28;20155;-80
2021/08/12 05:04:06;;;;;;;25.60;21.00;;;17.50;99.90;;;;;;5076222;28;20128;-78
2021/08/12 05:06:34;;;;;;;25.58;20.67;;;17.50;99.90;;;;;;5076736;28;20441;-80
2021/08/12 05:09:01;;;;;;;31.38;19.67;;;17.50;99.90;;;;;;5077631;28;20052;-80
2021/08/12 05:11:28;;;;;;;28.98;20.23;;;17.60;99.90;;;;;;5077055;28;20084;-80
2021/08/12 05:13:55;;;;;;;22.65;18.38;;;17.60;99.90;;;;;;5076759;28;20165;-79
2021/08/12 05:16:21;;;;;;;23.95;18.38;;;17.70;99.90;;;;;;5076563;28;20087;-78
2021/08/12 05:18:50;;;;;;;23.40;19.15;;;17.70;99.90;;;;;;5072708;28;20179;-78
2021/08/12 05:21:16;;;;;;;23.10;18.30;;;17.80;99.90;;;;;;5072672;28;20048;-79
2021/08/12 05:23:44;;;;;;;21.33;18.17;;;17.80;99.90;;;;;;5072563;28;20057;-79
2021/08/12 05:26:11;;;;;;;23.90;18.25;;;17.80;99.90;;;;;;5073941;28;20067;-78
2021/08/12 05:28:38;;;;;;;23.65;18.63;;;17.80;99.90;;;;;;5073027;28;20522;-78
2021/08/12 05:31:05;;;;;;;20.15;16.92;;;17.90;99.90;;;;;;5072821;28;20068;-78
2021/08/12 05:33:34;;;;;;;21.90;16.63;;;18.10;99.90;;;;;;5075540;28;20541;-79
2021/08/12 05:36:02;;;;;;;22.13;15.73;;;18.50;99.90;;;;;;5076626;28;20127;-79
2021/08/12 05:38:29;;;;;;;19.35;13.95;;;19.00;99.90;;;;;;5073777;28;20056;-79
2021/08/12 05:40:57;;;;;;;16.77;13.50;;;19.70;99.90;;;;;;5072925;28;20131;-78
2021/08/12 05:43:23;;;;;;;17.20;13.32;;;20.20;99.90;;;;;;5072573;28;20052;-78
2021/08/12 05:45:51;;;;;;;20.98;14.00;;;20.60;99.90;;;;;;5073323;28;20048;-79
2021/08/12 05:48:19;;;;;;;18.10;14.32;;;20.70;99.90;;;;;;5073597;28;20054;-78
2021/08/12 05:50:46;;;;;;;17.65;14.27;;;20.80;99.90;;;;;;5072336;28;20712;-81
2021/08/12 05:53:16;;;;;;;19.13;14.38;;;20.70;99.90;;;;;;5072098;28;20522;-77
2021/08/12 05:55:44;;;;;;;19.30;14.23;;;20.70;99.90;;;;;;5072658;28;20056;-78
2021/08/12 05:58:11;;;;;;;18.60;15.35;;;20.40;99.90;;;;;;5071773;28;20135;-78
2021/08/12 06:00:38;;;;;;;18.58;14.73;;;20.20;99.90;;;;;;5072275;28;20090;-78
2021/08/12 06:03:06;;;;;;;16.90;13.75;;;20.00;99.90;;;;;;5072256;28;20108;-80
2021/08/12 06:05:34;;;;;;;16.40;14.70;;;19.90;99.90;;;;;;5071875;28;20041;-78
2021/08/12 06:08:02;;;;;;;19.92;14.25;;;20.00;99.90;;;;;;5072706;28;20044;-78
2021/08/12 06:10:31;;;;;;;17.90;13.82;;;20.20;99.90;;;;;;5072491;28;20063;-79
2021/08/12 06:12:58;;;;;;;18.17;14.30;;;20.30;99.90;;;;;;5071750;28;20072;-77
2021/08/12 06:15:26;;;;;;;15.82;13.15;;;20.20;99.90;;;;;;5071524;28;20111;-77
2021/08/12 06:17:53;;;;;;;14.95;13.23;;;20.50;99.90;;;;;;5071178;28;20132;-78
2021/08/12 06:20:21;;;;;;;16.48;12.60;;;20.90;99.90;;;;;;5071379;28;20436;-78
2021/08/12 06:22:50;;;;;;;18.40;13.93;;;21.20;99.90;;;;;;5071730;28;20135;-79
2021/08/12 06:25:18;;;;;;;18.40;14.98;;;21.40;99.90;;;;;;5071314;28;20394;-78
2021/08/12 06:27:46;;;;;;;16.90;14.20;;;21.50;99.90;;;;;;5071689;28;20049;-80
2021/08/12 06:30:13;;;;;;;19.67;14.65;;;21.80;99.90;;;;;;5085368;22;20119;-80
2021/08/12 06:32:40;;;;;;;17.50;14.50;;;22.40;99.90;;;;;;5064652;28;20517;-79
2021/08/12 06:35:11;;;;;;;18.00;13.35;;;22.50;99.90;;;;;;5076340;28;20048;-79
2021/08/12 06:37:44;;;;;;;19.88;14.18;;;22.50;99.90;;;;;;5074692;28;20052;-79
2021/08/12 06:40:13;;;;;;;19.20;13.27;;;22.70;99.90;;;;;;5075514;28;20468;-79
2021/08/12 06:42:40;;;;;;;17.92;14.15;;;23.10;99.90;;;;;;5064167;28;20056;-79
2021/08/12 06:45:09;;;;;;;15.52;13.77;;;23.40;99.90;;;;;;5055006;28;20051;-80
2021/08/12 06:47:36;;;;;;;17.60;14.52;;;23.40;99.90;;;;;;5052372;28;20045;-79
2021/08/12 06:50:04;;;;;;;17.35;14.15;;;23.10;99.90;;;;;;5054770;28;20060;-78
2021/08/12 06:52:31;;;;;;;18.17;14.75;;;22.90;99.90;;;;;;5055305;28;20045;-80
2021/08/12 06:54:58;;;;;;;19.25;15.25;;;22.70;99.90;;;;;;5055429;28;20132;-78
2021/08/12 06:57:25;;;;;;;20.35;15.68;;;22.50;99.90;;;;;;5054748;28;20136;-79
2021/08/12 06:59:52;;;;;;;19.25;15.18;;;22.40;99.90;;;;;;5054321;28;20139;-79
2021/08/12 07:02:21;;;;;;;20.90;15.57;;;22.20;99.90;;;;;;5053418;28;20140;-78
2021/08/12 07:04:48;;;;;;;19.38;14.85;;;22.20;99.90;;;;;;5054519;28;20564;-78
2021/08/12 07:07:15;;;;;;;22.13;16.15;;;22.30;99.90;;;;;;5055401;28;20045;-78
2021/08/12 07:09:42;;;;;;;20.65;15.98;;;22.20;99.90;;;;;;5054742;28;20132;-79
2021/08/12 07:12:10;;;;;;;26.25;16.17;;;22.30;99.90;;;;;;5055092;28;20124;-79
2021/08/12 07:14:37;;;;;;;20.90;16.20;;;22.30;99.90;;;;;;5054859;28;20087;-79
2021/08/12 07:17:05;;;;;;;24.77;16.08;;;22.80;99.90;;;;;;5052265;28;20393;-80
2021/08/12 07:19:33;;;;;;;19.80;15.93;;;22.90;99.90;;;;;;5048134;28;20113;-78
2021/08/12 07:22:00;;;;;;;20.45;14.90;;;23.10;99.90;;;;;;5050258;28;20413;-77
2021/08/12 07:24:27;;;;;;;23.20;15.95;;;23.30;99.90;;;;;;5051301;28;20148;-79
2021/08/12 07:26:54;;;;;;;22.25;15.73;;;23.40;99.90;;;;;;5052871;28;20115;-79
2021/08/12 07:29:21;;;;;;;22.92;15.52;;;23.40;99.90;;;;;;5052752;28;20044;-79
2021/08/12 07:31:48;;;;;;;23.40;15.68;;;23.30;99.90;;;;;;5053814;28;20420;-78
2021/08/12 07:34:15;;;;;;;20.13;15.75;;;23.30;99.90;;;;;;5055884;28;20068;-80
2021/08/12 07:36:45;;;;;;;23.02;15.63;;;23.10;99.90;;;;;;5058198;28;20072;-80
2021/08/12 07:39:13;;;;;;;21.63;15.55;;;23.20;99.90;;;;;;5055489;28;20045;-80
2021/08/12 07:41:41;;;;;;;21.77;15.48;;;23.20;99.90;;;;;;5055624;28;20113;-80
2021/08/12 07:44:08;;;;;;;21.70;15.50;;;23.20;99.90;;;;;;5056250;28;20135;-80
2021/08/12 07:46:35;;;;;;;24.60;15.35;;;23.00;99.90;;;;;;5056000;28;20061;-79
2021/08/12 07:49:02;;;;;;;24.08;16.42;;;23.00;99.90;;;;;;5055866;28;20148;-80
2021/08/12 07:51:29;;;;;;;20.45;15.82;;;22.90;99.90;;;;;;5056653;28;20045;-80
2021/08/12 07:53:58;;;;;;;24.35;16.58;;;22.90;99.90;;;;;;5056595;28;20083;-81
2021/08/12 07:56:25;;;;;;;23.48;15.90;;;23.00;99.90;;;;;;5056271;28;20075;-80
2021/08/12 07:58:52;;;;;;;24.17;15.48;;;23.30;99.90;;;;;;5056452;28;20080;-80
2021/08/12 08:01:20;;;;;;;23.83;16.45;;;23.50;99.90;;;;;;5055665;28;20175;-80
2021/08/12 08:03:47;;;;;;;21.90;15.32;;;23.70;99.90;;;;;;5055213;28;20136;-80
2021/08/12 08:06:15;;;;;;;24.10;17.58;;;23.90;99.90;;;;;;5055358;28;20052;-79
2021/08/12 08:08:42;;;;;;;24.27;16.05;;;23.80;99.90;;;;;;5055808;28;20049;-79
2021/08/12 08:11:11;;;;;;;25.10;17.92;;;23.60;99.90;;;;;;5054676;28;20137;-80
2021/08/12 08:13:38;;;;;;;24.40;17.45;;;23.60;99.90;;;;;;5054864;28;20053;-79
2021/08/12 08:16:05;;;;;;;23.35;16.35;;;23.90;99.90;;;;;;5058634;28;20080;-80
2021/08/12 08:18:35;;;;;;;20.10;15.85;;;24.20;99.90;;;;;;5058744;28;20156;-78
2021/08/12 08:21:02;;;;;;;20.23;14.70;;;24.50;99.90;;;;;;5058972;28;20571;-80
2021/08/12 08:23:29;;;;;;;17.42;14.70;;;24.80;99.90;;;;;;5058366;28;20063;-80
2021/08/12 08:25:56;;;;;;;18.45;15.02;;;25.00;99.90;;;;;;5059112;28;20099;-80
2021/08/12 08:28:24;;;;;;;20.08;16.17;;;24.90;99.90;;;;;;5058750;28;20386;-80
2021/08/12 08:30:51;;;;;;;27.33;15.95;;;24.80;99.90;;;;;;5059397;28;20087;-80
2021/08/12 08:33:17;;;;;;;23.63;16.35;;;24.80;99.90;;;;;;5058590;28;20080;-80
2021/08/12 08:35:44;;;;;;;25.42;15.45;;;24.80;99.90;;;;;;5058658;28;20080;-80
2021/08/12 08:38:11;;;;;;;21.70;16.55;;;25.30;99.90;;;;;;5058118;28;20056;-80
2021/08/12 08:40:39;;;;;;;21.10;17.42;;;25.60;99.90;;;;;;5057914;28;20045;-79
2021/08/12 08:43:08;;;;;;;25.85;17.40;;;25.90;99.90;;;;;;5056531;28;20079;-79
2021/08/12 08:45:39;;;;;;;25.77;17.25;;;26.20;99.90;;;;;;5059198;28;20076;-80
2021/08/12 08:48:12;;;;;;;20.20;16.63;;;26.70;99.90;;;;;;5060696;28;20045;-77
2021/08/12 08:50:41;;;;;;;20.45;16.13;;;27.00;99.90;;;;;;5059377;28;20102;-78
2021/08/12 08:53:09;;;;;;;21.05;17.73;;;26.60;99.90;;;;;;5059260;28;20481;-79
2021/08/12 08:55:35;;;;;;;21.60;17.15;;;26.50;99.90;;;;;;5058812;28;20478;-78
2021/08/12 08:58:03;;;;;;;22.63;16.50;;;26.50;99.90;;;;;;5059448;28;20277;-79
2021/08/12 09:00:30;;;;;;;23.63;18.50;;;26.60;99.90;;;;;;5058785;28;20480;-80
2021/08/12 09:02:58;;;;;;;22.23;17.73;;;26.40;99.90;;;;;;5057277;28;20513;-78
2021/08/12 09:05:25;;;;;;;21.92;16.00;;;26.40;99.90;;;;;;5057530;28;20131;-79
2021/08/12 09:07:52;;;;;;;24.73;16.90;;;26.90;99.90;;;;;;5056930;28;20055;-78
2021/08/12 09:10:19;;;;;;;20.88;16.48;;;27.30;99.90;;;;;;5059321;28;20053;-80
2021/08/12 09:12:47;;;;;;;20.35;16.35;;;27.60;99.90;;;;;;5060106;28;20550;-80
2021/08/12 09:15:18;;;;;;;19.23;15.45;;;28.00;99.90;;;;;;5060621;28;20132;-79
2021/08/12 09:17:45;;;;;;;23.23;15.65;;;28.10;99.90;;;;;;5063384;28;20053;-79
2021/08/12 09:20:16;;;;;;;19.10;14.68;;;28.30;99.90;;;;;;5060053;28;20135;-80
2021/08/12 09:22:54;;;;;;;18.30;14.30;;;28.30;99.90;;;;;;5061548;28;20154;-79
2021/08/12 09:25:40;;;;;;;19.25;14.65;;;28.30;99.90;;;;;;5062928;28;20080;-80
2021/08/12 09:28:24;;;;;;;16.92;12.73;;;28.10;99.90;;;;;;5064917;28;20056;-79
2021/08/12 09:31:10;;;;;;;17.08;13.25;;;28.10;99.90;;;;;;5060092;28;20073;-80
2021/08/12 09:33:47;;;;;;;17.98;12.75;;;27.80;99.90;;;;;;5058345;28;20080;-80
2021/08/12 09:36:25;;;;;;;17.02;12.40;;;27.70;99.90;;;;;;5060039;28;20132;-80
2021/08/12 09:39:09;;;;;;;16.52;12.65;;;27.70;99.90;;;;;;5060525;28;20075;-80
2021/08/12 09:41:44;;;;;;;18.27;13.15;;;27.70;99.90;;;;;;5060616;28;20060;-79
2021/08/12 09:44:41;;;;;;;15.88;12.25;;;27.30;99.90;;;;;;5059569;28;20053;-80
2021/08/12 09:47:10;;;;;;;16.65;13.38;;;27.20;99.90;;;;;;5059767;28;20049;-80
2021/08/12 09:49:40;;;;;;;18.35;11.95;;;27.20;99.90;;;;;;5059051;28;20041;-79
2021/08/12 09:52:26;;;;;;;17.02;12.50;;;27.20;99.90;;;;;;5061586;28;20112;-79
2021/08/12 09:55:19;;;;;;;18.20;11.52;;;27.30;99.90;;;;;;5059510;28;20052;-79
2021/08/12 09:57:48;;;;;;;14.73;10.05;;;27.40;99.90;;;;;;5056069;28;20501;-80
2021/08/12 10:00:32;;;;;;;13.30;9.30;;;27.40;99.90;;;;;;5059082;28;20067;-80
2021/08/12 10:02:59;;;;;;;15.27;9.77;;;27.40;99.90;;;;;;5056194;28;20072;-80
2021/08/12 10:05:27;;;;;;;11.95;8.57;;;27.30;99.90;;;;;;5059660;28;20128;-80
2021/08/12 10:07:56;;;;;;;15.35;11.48;;;27.30;99.90;;;;;;5058767;28;20091;-80
2021/08/12 10:10:27;;;;;;;17.52;11.85;;;27.10;99.90;;;;;;5059113;28;20139;-80
2021/08/12 10:12:55;;;;;;;15.20;11.32;;;26.80;99.90;;;;;;5058164;28;20049;-79
2021/08/12 10:15:25;;;;;;;14.57;11.35;;;26.90;99.90;;;;;;5059763;28;20052;-79
2021/08/12 10:17:53;;;;;;;18.23;12.27;;;26.90;99.90;;;;;;5063253;28;20049;-78
2021/08/12 10:20:23;;;;;;;15.75;11.30;;;26.90;99.90;;;;;;5062324;28;20135;-79
2021/08/12 10:22:52;;;;;;;12.57;10.80;;;27.10;99.90;;;;;;5057988;28;20116;-79
2021/08/12 10:25:22;;;;;;;14.07;10.45;;;27.20;99.90;;;;;;5056534;28;20052;-79
2021/08/12 10:27:56;;;;;;;12.60;9.80;;;27.40;99.90;;;;;;5056554;28;20457;-79
2021/08/12 10:30:25;;;;;;;10.20;7.50;;;27.50;99.90;;;;;;5056272;28;20131;-79
2021/08/12 10:32:55;;;;;;;9.00;7.45;;;27.60;99.90;;;;;;5056393;28;20067;-77
2021/08/12 10:35:24;;;;;;;10.95;6.93;;;27.70;99.90;;;;;;5056165;28;20441;-79
2021/08/12 10:37:54;;;;;;;10.68;7.35;;;27.80;99.90;;;;;;5054873;28;20113;-79
2021/08/12 10:40:26;;;;;;;10.85;7.32;;;27.90;99.90;;;;;;5056751;28;20053;-79
2021/08/12 10:42:53;;;;;;;;;;;28.00;99.90;;;;;;5060239;28;20083;-77
2021/08/12 10:45:21;;;;;;;9.63;7.93;;;28.00;99.90;;;;;;5059502;28;19978;-78
2021/08/12 10:47:52;;;;;;;12.55;7.70;;;28.00;99.90;;;;;;5057880;28;20056;-78
2021/08/12 10:50:43;;;;;;;10.00;7.85;;;28.00;99.90;;;;;;5055874;28;20385;-79
2021/08/12 10:53:18;;;;;;;9.55;7.75;;;28.10;99.90;;;;;;5056102;28;20477;-79
2021/08/12 10:56:04;;;;;;;11.23;7.10;;;28.20;99.90;;;;;;5056796;28;20136;-79
2021/08/12 10:58:36;;;;;;;11.65;6.97;;;28.10;99.90;;;;;;5056300;28;20049;-79
2021/08/12 11:01:06;;;;;;;8.55;6.53;;;28.00;99.90;;;;;;5056293;28;20100;-79
2021/08/12 11:03:45;;;;;;;9.75;6.97;;;28.00;99.90;;;;;;5056265;28;20058;-78
2021/08/12 11:06:17;;;;;;;11.07;6.47;;;28.00;99.90;;;;;;5058419;28;20052;-78
2021/08/12 11:09:02;;;;;;;8.80;6.35;;;27.90;99.90;;;;;;5059434;28;20105;-79
2021/08/12 11:12:01;;;;;;;9.57;6.65;;;27.80;99.90;;;;;;5058164;28;20057;-79
2021/08/12 11:14:59;;;;;;;12.23;6.20;;;27.80;99.90;;;;;;5062874;28;20079;-79
2021/08/12 11:17:55;;;;;;;9.35;6.05;;;27.70;99.90;;;;;;5062241;28;20087;-79
2021/08/12 11:20:33;;;;;;;9.13;6.22;;;27.70;99.90;;;;;;5062334;28;20127;-80
2021/08/12 11:23:33;;;;;;;8.48;6.40;;;27.70;99.90;;;;;;5060711;28;20048;-78
2021/08/12 11:26:02;;;;;;;8.20;6.30;;;27.50;99.90;;;;;;5059001;28;20112;-78
2021/08/12 11:28:55;;;;;;;9.43;6.25;;;27.40;99.90;;;;;;5060914;28;20107;-79
2021/08/12 11:31:54;;;;;;;8.70;6.30;;;27.50;99.90;;;;;;5060618;28;20136;-79
2021/08/12 11:34:27;;;;;;;10.13;5.82;;;27.50;99.90;;;;;;5062242;28;20044;-79
2021/08/12 11:37:16;;;;;;;7.72;5.80;;;27.60;99.90;;;;;;5061644;28;20136;-79
2021/08/12 11:39:55;;;;;;;6.07;5.32;;;27.70;99.90;;;;;;5057280;28;20049;-79
2021/08/12 11:42:31;;;;;;;7.93;6.25;;;27.90;99.90;;;;;;5061694;28;20131;-79
2021/08/12 11:45:01;;;;;;;10.05;5.90;;;28.10;99.90;;;;;;5061577;28;20052;-79
2021/08/12 11:47:28;;;;;;;8.07;5.70;;;28.20;99.90;;;;;;5061634;28;20095;-79
2021/08/12 11:49:57;;;;;;;8.40;5.65;;;28.20;99.90;;;;;;5062342;28;20132;-79
2021/08/12 11:52:26;;;;;;;7.28;5.57;;;28.20;99.90;;;;;;5064486;28;20049;-78
2021/08/12 11:55:01;;;;;;;7.03;5.60;;;28.30;99.90;;;;;;5063811;28;20049;-79
2021/08/12 11:57:45;;;;;;;9.02;5.57;;;28.30;99.90;;;;;;5064886;28;20136;-79
2021/08/12 12:00:15;;;;;;;6.50;5.25;;;28.30;99.90;;;;;;5066069;28;20466;-79
2021/08/12 12:02:49;;;;;;;5.90;5.30;;;28.30;99.90;;;;;;5067449;28;20076;-79
2021/08/12 12:05:17;;;;;;;8.57;5.47;;;28.60;99.90;;;;;;5066699;28;20056;-79
2021/08/12 12:07:46;;;;;;;7.13;5.32;;;28.60;99.90;;;;;;5064498;28;20118;-79
2021/08/12 12:10:22;;;;;;;6.35;5.45;;;28.50;99.90;;;;;;5062364;28;20128;-79
2021/08/12 12:12:48;;;;;;;7.72;5.53;;;28.70;99.90;;;;;;5061625;28;20083;-79
2021/08/12 12:15:29;;;;;;;6.60;5.32;;;28.80;99.90;;;;;;5060285;28;20057;-79
2021/08/12 12:17:56;;;;;;;9.57;5.38;;;28.90;99.90;;;;;;5059591;28;20056;-80
2021/08/12 12:20:24;;;;;;;8.13;5.40;;;28.90;99.90;;;;;;5060180;28;20041;-79
2021/08/12 12:23:02;;;;;;;6.68;5.22;;;28.70;99.90;;;;;;5059452;28;20134;-78
2021/08/12 12:25:30;;;;;;;7.80;5.60;;;28.60;99.90;;;;;;5060025;28;20053;-80
2021/08/12 12:27:58;;;;;;;5.93;5.28;;;28.50;99.90;;;;;;5059537;28;20080;-79
2021/08/12 12:30:28;;;;;;;6.57;5.40;;;28.50;99.90;;;;;;5081804;22;20077;-78
2021/08/12 12:33:02;;;;;;;7.60;5.90;;;28.60;99.90;;;;;;5096298;28;20083;-77
2021/08/12 12:35:30;;;;;;;6.63;5.40;;;28.50;99.90;;;;;;5104573;28;20048;-78
2021/08/12 12:37:58;;;;;;;7.60;5.85;;;28.40;99.90;;;;;;5105123;28;20460;-78
2021/08/12 12:40:28;;;;;;;7.43;5.80;;;28.40;99.90;;;;;;5096806;28;20104;-80
2021/08/12 12:42:56;;;;;;;8.20;5.88;;;28.40;99.90;;;;;;5079424;28;20577;-78
2021/08/12 12:45:23;;;;;;;6.43;5.40;;;28.50;99.90;;;;;;5079817;28;20103;-80